KBTVKASH

Guest
Details From KBTV - BURLINGTON INTL
To KASH - Boire Field Nashua
Flight Number -
Tags generated
Created
Modified
Stats Distance 124 nm / 230 km
Max Altitude 9,300 ft / 2,835 m
Waypoints 3
Social Downloads 1
Likes 0
Share VATSIM

Download

Looking for another format? Having issues loading an existing format? Contact us
Advertisement - Login to hide

Notes

Basic altitude profile: - Ascent Rate: 800ft/min - Ascent Speed: 115kts - Cruise Altitude: 8000ft - Cruise Speed: 135kts - Descent Rate: 1000ft/min - Descent Speed: 120kts Options: - Use NATs: no - Use PACOTS: no - Use low airways: yes - Use high airways: no

Route

KBTV GREEK KASH

ID Type Via Altitude Latitude Longitude Leg Dist Tot Dist Heading (true) Name
O KBTV APT - 0 ft / 0 m 44.47125˚ -73.15311˚ - 0 nm - BURLINGTON INTL
GREEK FIX - 9,300 ft / 2,835 m 44.08238˚ -72.75482˚ 28 nm 28 nm 144° / 144° -
O KASH APT - 0 ft / 0 m 42.78176˚ -71.51477˚ 95 nm 123 nm 145° / 146° Boire Field Nashua

Altitude Profile

Advertisement - Login to hide

KBTV

Details ICAO KBTV (BTV)
Name BURLINGTON INTL
Region United States
Timezone America/New_York (UTC-5.0)
Stats Elevation 334 ft / 102 m (AMSL)
Location 44.471252° -73.153113°
Runways 2
Magnetic Variation 14.308° W

METAR

KBTV 181654Z 19013G19KT 10SM OVC037 M02/M06 A2995 RMK AO2 SLP148 MTNS OBSCD E-S T10171061

Decode

TAF

KBTV 181442Z 1815/1912 16006KT 6SM -SN BR OVC040 TEMPO 1816/1819 2SM -SN BR OVC025 FM182000 18006KT P6SM OVC015 FM182300 17006KT P6SM VCSH OVC015 FM190200 18006KT P6SM OVC015

Decode

Departure Runways

ID Width Length Bearing (true) Bearing (mag) Surface Threshold Offset Overrun Length
01 75 ft / 23 m 4,115 ft / 1,254 m 351.45° 5.76° Asphalt 226 ft / 69 m 0 ft / 0 m
15 150 ft / 46 m 8,311 ft / 2,533 m 130.91° 145.22° Asphalt 0 ft / 0 m 1,004 ft / 306 m
19 75 ft / 23 m 4,115 ft / 1,254 m 171.45° 185.76° Asphalt 505 ft / 154 m 0 ft / 0 m
33 150 ft / 46 m 8,311 ft / 2,533 m 310.93° 325.24° Asphalt 502 ft / 153 m 522 ft / 159 m

KASH

Details ICAO KASH (ASH)
Name Boire Field Nashua
Region United States
Timezone America/New_York (UTC-5.0)
Stats Elevation 199 ft / 61 m (AMSL)
Location 42.781757° -71.514774°
Runways 1
Magnetic Variation 14.572° W

METAR

KASH 181656Z COR 00000KT 6SM -SN BR OVC023 M03/M09 A3007 RMK AO2 SLP194 T10281094

Decode

TAF

Not found

Destination Runways

ID Width Length Bearing (true) Bearing (mag) Surface Threshold Offset Overrun Length
14 98 ft / 30 m 5,493 ft / 1,674 m 122.78° 137.35° Asphalt 0 ft / 0 m 0 ft / 0 m
32 98 ft / 30 m 5,493 ft / 1,674 m 302.80° 317.37° Asphalt 0 ft / 0 m 0 ft / 0 m

Approach Navaids

Runway Type Ident Frequency Range Bearing (true) Bearing (mag) Slope Elevation
14 Localiser IASH 109.70 MHz 18 nm / 33 km 122.80° 137.38° - 186 ft / 57 m (AMSL)
14 Glidescope IASH 109.70 MHz 10 nm / 19 km 122.79° 137.36° 3.00° 194 ft / 59 m (AMSL)

Popular Alternatives